Hauptseite
METAR-TAF:

METAR-TAF

Flughäfen :

Flugplatz Toussus-le-Noble

Toussus-le-Noble, Frankreich

Breite: 48-46N, Länge: 002-06E, Höhe: 164 m

Beobachtung

Neuester Wetterbericht von vor 27 Minuten, um 10:30 UTC
Wind 7 kt aus Süd/Südwest, variierte zwischen Süd/Südost und Südwest
Temperatur 5°C
Luftfeuchtigkeit 87%
Luftdruck 998 hPa
Sichtweite 10 km oder mehr
Durchbrochene Bewölkung in der Höhe von 1400 ft
Geschlossene Wolkendecke in der Höhe von 2100 ft

METAR: LFPN 141030Z AUTO 20007KT 160V220 9999 BKN014 OVC021 05/03 Q0998 BECMG BKN030

Zeit: 11:57 (10:57 UTC)

Prognose

Neuester Wetterbericht von vor 2 Stunden und 57 Minuten, um 08:00 UTC
Gültige Prognose vom 14 um 09 UTC bis 14 um 18 UTC
Wind 8 kt aus Süd/Südwest
Sichtweite 10 km oder mehr
Durchbrochene Bewölkung in der Höhe von 3000 ft

TAF: LFPN 140800Z 1409/1418 20008KT 9999 BKN030

Wetterbeobachtungen und Prognosen von mehr als 4000 Flughäfen (METAR und TAF Bericht).

Die verfügbaren Stationen werden durch gelbe und rote Markierungen auf der Karte dargestellt.

Führen Sie die Maus auf sie, um den Namen der Station zu sehen.

Darauf klicken, um die Beobachtung von Wetterbeobachtungen und Prognosen zu sehen.

Um die Karte zu ändern : klicken Sie auf den grünen Tasten mit einem schwarzen Kreuz Zum Vergrößern, auf den grünen Button mit einem Gedankenstrich zu verkleinern, oder auf die grünen Pfeile für benachbarte Karten.


METAR-TAF: